sensor_id;sensor_type;location;lat;lon;timestamp;pressure;altitude;pressure_sealevel;temperature;humidity
64292;BME280;50628;51.008;13.658;2023-03-01T00:02:40;101084.72;;;-2.82;100.00
64292;BME280;50628;51.008;13.658;2023-03-01T00:07:42;101090.59;;;-2.71;100.00
64292;BME280;50628;51.008;13.658;2023-03-01T00:12:44;101082.78;;;-2.40;100.00
64292;BME280;50628;51.008;13.658;2023-03-01T00:17:47;101087.19;;;-2.70;100.00
64292;BME280;50628;51.008;13.658;2023-03-01T00:22:50;101083.03;;;-2.86;100.00
64292;BME280;50628;51.008;13.658;2023-03-01T00:27:52;101085.69;;;-3.17;100.00
64292;BME280;50628;51.008;13.658;2023-03-01T00:32:55;101080.56;;;-3.15;100.00
64292;BME280;50628;51.008;13.658;2023-03-01T00:38:44;101069.53;;;-3.20;100.00
64292;BME280;50628;51.008;13.658;2023-03-01T00:43:46;101067.91;;;-3.46;100.00
64292;BME280;50628;51.008;13.658;2023-03-01T00:48:50;101056.91;;;-3.66;100.00
64292;BME280;50628;51.008;13.658;2023-03-01T00:53:53;101055.22;;;-3.74;100.00
64292;BME280;50628;51.008;13.658;2023-03-01T00:58:57;101046.72;;;-3.68;100.00
64292;BME280;50628;51.008;13.658;2023-03-01T01:04:02;101055.22;;;-3.98;100.00
64292;BME280;50628;51.008;13.658;2023-03-01T01:09:06;101049.28;;;-3.86;100.00
64292;BME280;50628;51.008;13.658;2023-03-01T01:14:08;101053.53;;;-3.76;100.00
64292;BME280;50628;51.008;13.658;2023-03-01T01:19:12;101050.97;;;-3.76;100.00
64292;BME280;50628;51.008;13.658;2023-03-01T01:24:15;101049.28;;;-3.76;100.00
64292;BME280;50628;51.008;13.658;2023-03-01T01:29:17;101041.66;;;-3.76;100.00
64292;BME280;50628;51.008;13.658;2023-03-01T01:34:21;101036.56;;;-3.60;100.00
64292;BME280;50628;51.008;13.658;2023-03-01T01:39:23;101028.88;;;-3.39;100.00
64292;BME280;50628;51.008;13.658;2023-03-01T01:44:27;101019.56;;;-3.58;100.00
64292;BME280;50628;51.008;13.658;2023-03-01T01:49:35;101017.03;;;-3.54;100.00
64292;BME280;50628;51.008;13.658;2023-03-01T01:54:42;101029.78;;;-3.81;100.00
64292;BME280;50628;51.008;13.658;2023-03-01T01:59:49;101030.63;;;-3.70;100.00
64292;BME280;50628;51.008;13.658;2023-03-01T02:05:03;101028.03;;;-3.49;100.00
64292;BME280;50628;51.008;13.658;2023-03-01T02:10:10;101028.09;;;-3.81;100.00
64292;BME280;50628;51.008;13.658;2023-03-01T02:15:16;101022.19;;;-4.07;100.00
64292;BME280;50628;51.008;13.658;2023-03-01T02:20:33;101025.56;;;-3.87;100.00
64292;BME280;50628;51.008;13.658;2023-03-01T02:25:45;101018.75;;;-3.68;100.00
64292;BME280;50628;51.008;13.658;2023-03-01T02:30:50;101000.09;;;-3.64;100.00
64292;BME280;50628;51.008;13.658;2023-03-01T02:36:14;100993.34;;;-3.99;100.00
64292;BME280;50628;51.008;13.658;2023-03-01T02:41:19;100989.94;;;-3.84;100.00
64292;BME280;50628;51.008;13.658;2023-03-01T02:46:24;100998.41;;;-3.96;100.00
64292;BME280;50628;51.008;13.658;2023-03-01T02:51:37;100988.22;;;-3.83;100.00
64292;BME280;50628;51.008;13.658;2023-03-01T02:56:44;100984.03;;;-4.12;100.00
64292;BME280;50628;51.008;13.658;2023-03-01T03:01:51;100983.19;;;-4.25;100.00
64292;BME280;50628;51.008;13.658;2023-03-01T03:06:53;100979.78;;;-4.50;100.00
64292;BME280;50628;51.008;13.658;2023-03-01T03:11:55;100968.75;;;-4.67;100.00
64292;BME280;50628;51.008;13.658;2023-03-01T03:16:58;100972.19;;;-4.56;100.00
64292;BME280;50628;51.008;13.658;2023-03-01T03:22:00;100983.16;;;-4.46;100.00
64292;BME280;50628;51.008;13.658;2023-03-01T03:27:02;100967.94;;;-4.32;100.00
64292;BME280;50628;51.008;13.658;2023-03-01T03:32:06;100969.63;;;-3.93;100.00
64292;BME280;50628;51.008;13.658;2023-03-01T03:37:08;100960.28;;;-4.06;100.00
64292;BME280;50628;51.008;13.658;2023-03-01T03:42:30;100958.63;;;-4.03;100.00
64292;BME280;50628;51.008;13.658;2023-03-01T03:47:33;100958.63;;;-4.26;100.00
64292;BME280;50628;51.008;13.658;2023-03-01T03:52:35;100962.88;;;-4.40;100.00
64292;BME280;50628;51.008;13.658;2023-03-01T03:57:37;100958.63;;;-4.24;100.00
64292;BME280;50628;51.008;13.658;2023-03-01T04:02:41;100964.56;;;-4.35;100.00
64292;BME280;50628;51.008;13.658;2023-03-01T04:07:43;100965.38;;;-4.71;100.00
64292;BME280;50628;51.008;13.658;2023-03-01T04:12:46;100969.63;;;-4.68;100.00
64292;BME280;50628;51.008;13.658;2023-03-01T04:17:50;100967.06;;;-4.68;100.00
64292;BME280;50628;51.008;13.658;2023-03-01T04:22:57;100961.97;;;-4.71;100.00
64292;BME280;50628;51.008;13.658;2023-03-01T04:28:00;100962.00;;;-4.65;100.00
64292;BME280;50628;51.008;13.658;2023-03-01T04:33:06;100956.09;;;-4.53;100.00
64292;BME280;50628;51.008;13.658;2023-03-01T04:38:11;100963.69;;;-4.70;100.00
64292;BME280;50628;51.008;13.658;2023-03-01T04:43:13;100960.25;;;-4.82;100.00
64292;BME280;50628;51.008;13.658;2023-03-01T04:48:17;100967.03;;;-4.71;100.00
64292;BME280;50628;51.008;13.658;2023-03-01T04:53:19;100969.56;;;-4.96;100.00
64292;BME280;50628;51.008;13.658;2023-03-01T04:58:21;100964.47;;;-4.96;100.00
64292;BME280;50628;51.008;13.658;2023-03-01T05:03:24;100969.56;;;-4.90;100.00
64292;BME280;50628;51.008;13.658;2023-03-01T05:08:26;100972.13;;;-4.85;100.00
64292;BME280;50628;51.008;13.658;2023-03-01T05:13:28;100965.31;;;-4.98;100.00
64292;BME280;50628;51.008;13.658;2023-03-01T05:18:33;100960.22;;;-5.03;100.00
64292;BME280;50628;51.008;13.658;2023-03-01T05:23:35;100952.59;;;-5.08;100.00
64292;BME280;50628;51.008;13.658;2023-03-01T05:28:37;100949.22;;;-5.02;100.00
64292;BME280;50628;51.008;13.658;2023-03-01T05:33:41;100953.44;;;-5.13;100.00
64292;BME280;50628;51.008;13.658;2023-03-01T05:38:43;100950.06;;;-5.11;100.00
64292;BME280;50628;51.008;13.658;2023-03-01T05:43:45;100947.50;;;-5.09;100.00
64292;BME280;50628;51.008;13.658;2023-03-01T05:48:49;100940.72;;;-5.15;100.00
64292;BME280;50628;51.008;13.658;2023-03-01T05:53:51;100955.09;;;-5.23;100.00
64292;BME280;50628;51.008;13.658;2023-03-01T05:58:53;100951.72;;;-5.10;100.00
64292;BME280;50628;51.008;13.658;2023-03-01T06:03:56;100952.56;;;-5.15;100.00
64292;BME280;50628;51.008;13.658;2023-03-01T06:08:58;100955.97;;;-5.07;100.00
64292;BME280;50628;51.008;13.658;2023-03-01T06:14:00;100955.13;;;-5.05;100.00
64292;BME280;50628;51.008;13.658;2023-03-01T06:19:03;100951.75;;;-5.05;100.00
64292;BME280;50628;51.008;13.658;2023-03-01T06:24:06;100961.03;;;-5.12;100.00
64292;BME280;50628;51.008;13.658;2023-03-01T06:29:08;100963.56;;;-5.16;100.00
64292;BME280;50628;51.008;13.658;2023-03-01T06:34:12;100968.63;;;-5.19;100.00
64292;BME280;50628;51.008;13.658;2023-03-01T06:39:14;100975.44;;;-5.14;100.00
64292;BME280;50628;51.008;13.658;2023-03-01T06:44:18;100974.59;;;-5.07;100.00
64292;BME280;50628;51.008;13.658;2023-03-01T06:49:21;100975.47;;;-4.97;100.00
64292;BME280;50628;51.008;13.658;2023-03-01T06:54:23;100970.38;;;-5.00;100.00
64292;BME280;50628;51.008;13.658;2023-03-01T06:59:25;100974.59;;;-4.99;100.00
64292;BME280;50628;51.008;13.658;2023-03-01T07:04:28;100978.91;;;-4.89;100.00
64292;BME280;50628;51.008;13.658;2023-03-01T07:09:31;100967.84;;;-4.95;100.00
64292;BME280;50628;51.008;13.658;2023-03-01T07:14:33;100962.81;;;-4.79;100.00
64292;BME280;50628;51.008;13.658;2023-03-01T07:19:36;100960.31;;;-4.49;100.00
64292;BME280;50628;51.008;13.658;2023-03-01T07:24:38;100950.16;;;-4.29;100.00
64292;BME280;50628;51.008;13.658;2023-03-01T07:29:39;100951.84;;;-4.22;100.00
64292;BME280;50628;51.008;13.658;2023-03-01T07:34:43;100953.53;;;-4.24;100.00
64292;BME280;50628;51.008;13.658;2023-03-01T07:39:45;100950.97;;;-3.95;100.00
64292;BME280;50628;51.008;13.658;2023-03-01T07:44:46;100951.81;;;-3.90;100.00
64292;BME280;50628;51.008;13.658;2023-03-01T07:49:50;100939.00;;;-3.55;100.00
64292;BME280;50628;51.008;13.658;2023-03-01T07:54:51;100937.22;;;-3.37;100.00
64292;BME280;50628;51.008;13.658;2023-03-01T07:59:53;100930.34;;;-3.18;100.00
64292;BME280;50628;51.008;13.658;2023-03-01T08:04:57;100938.69;;;-2.93;100.00
64292;BME280;50628;51.008;13.658;2023-03-01T08:09:58;100921.56;;;-2.73;100.00
64292;BME280;50628;51.008;13.658;2023-03-01T08:15:00;100906.91;;;-2.43;100.00
64292;BME280;50628;51.008;13.658;2023-03-01T08:20:04;100894.78;;;-2.16;100.00
64292;BME280;50628;51.008;13.658;2023-03-01T08:25:08;100889.31;;;-1.84;100.00
64292;BME280;50628;51.008;13.658;2023-03-01T08:30:11;100896.00;;;-1.74;100.00
64292;BME280;50628;51.008;13.658;2023-03-01T08:35:14;100895.75;;;-1.51;100.00
64292;BME280;50628;51.008;13.658;2023-03-01T08:40:16;100895.31;;;-1.19;100.00
64292;BME280;50628;51.008;13.658;2023-03-01T08:45:18;100898.47;;;-1.00;100.00
64292;BME280;50628;51.008;13.658;2023-03-01T08:50:21;100885.44;;;-0.84;100.00
64292;BME280;50628;51.008;13.658;2023-03-01T08:55:24;100885.03;;;-0.58;100.00
64292;BME280;50628;51.008;13.658;2023-03-01T09:00:26;100873.63;;;-0.39;100.00
64292;BME280;50628;51.008;13.658;2023-03-01T09:05:31;100873.94;;;-0.57;100.00
64292;BME280;50628;51.008;13.658;2023-03-01T09:10:33;100880.91;;;-0.67;100.00
64292;BME280;50628;51.008;13.658;2023-03-01T09:15:38;100867.34;;;-0.21;100.00
64292;BME280;50628;51.008;13.658;2023-03-01T09:20:42;100855.53;;;0.17;100.00
64292;BME280;50628;51.008;13.658;2023-03-01T09:25:43;100855.28;;;-0.62;100.00
64292;BME280;50628;51.008;13.658;2023-03-01T09:30:45;100851.69;;;-0.04;100.00
64292;BME280;50628;51.008;13.658;2023-03-01T09:35:48;100844.38;;;-0.26;100.00
64292;BME280;50628;51.008;13.658;2023-03-01T09:40:51;100842.56;;;0.25;100.00
64292;BME280;50628;51.008;13.658;2023-03-01T09:45:54;100846.28;;;0.52;100.00
64292;BME280;50628;51.008;13.658;2023-03-01T09:51:01;100843.84;;;0.84;100.00
64292;BME280;50628;51.008;13.658;2023-03-01T09:56:14;100847.84;;;0.59;100.00
64292;BME280;50628;51.008;13.658;2023-03-01T10:01:31;100845.09;;;0.67;100.00
64292;BME280;50628;51.008;13.658;2023-03-01T10:06:38;100848.69;;;0.58;100.00
64292;BME280;50628;51.008;13.658;2023-03-01T10:11:43;100840.56;;;0.39;100.00
64292;BME280;50628;51.008;13.658;2023-03-01T10:16:49;100847.72;;;1.02;100.00
64292;BME280;50628;51.008;13.658;2023-03-01T10:21:57;100845.69;;;0.79;100.00
64292;BME280;50628;51.008;13.658;2023-03-01T10:27:05;100840.53;;;0.81;100.00
64292;BME280;50628;51.008;13.658;2023-03-01T10:32:09;100829.03;;;1.66;100.00
64292;BME280;50628;51.008;13.658;2023-03-01T10:37:15;100834.91;;;1.37;100.00
64292;BME280;50628;51.008;13.658;2023-03-01T10:42:25;100826.13;;;1.78;100.00
64292;BME280;50628;51.008;13.658;2023-03-01T10:47:27;100812.78;;;1.65;100.00
64292;BME280;50628;51.008;13.658;2023-03-01T10:52:33;100808.25;;;2.06;100.00
64292;BME280;50628;51.008;13.658;2023-03-01T10:57:37;100809.06;;;2.38;100.00
64292;BME280;50628;51.008;13.658;2023-03-01T11:02:40;100795.13;;;2.45;100.00
64292;BME280;50628;51.008;13.658;2023-03-01T11:07:49;100798.16;;;2.30;100.00
64292;BME280;50628;51.008;13.658;2023-03-01T11:12:52;100794.19;;;2.76;100.00
64292;BME280;50628;51.008;13.658;2023-03-01T11:17:56;100785.59;;;2.21;100.00
64292;BME280;50628;51.008;13.658;2023-03-01T11:23:01;100783.44;;;2.63;100.00
64292;BME280;50628;51.008;13.658;2023-03-01T11:28:05;100784.47;;;2.86;100.00
64292;BME280;50628;51.008;13.658;2023-03-01T11:33:17;100775.19;;;3.33;100.00
64292;BME280;50628;51.008;13.658;2023-03-01T11:38:23;100768.41;;;3.04;100.00
64292;BME280;50628;51.008;13.658;2023-03-01T11:43:37;100771.00;;;3.54;100.00
64292;BME280;50628;51.008;13.658;2023-03-01T11:48:50;100772.88;;;4.21;97.11
64292;BME280;50628;51.008;13.658;2023-03-01T11:54:05;100775.28;;;4.70;88.46
64292;BME280;50628;51.008;13.658;2023-03-01T11:59:28;100759.13;;;5.29;82.65
64292;BME280;50628;51.008;13.658;2023-03-01T12:04:54;100754.00;;;4.87;78.16
64292;BME280;50628;51.008;13.658;2023-03-01T12:10:19;100752.00;;;5.34;72.15
64292;BME280;50628;51.008;13.658;2023-03-01T12:15:45;100739.66;;;5.80;70.64
64292;BME280;50628;51.008;13.658;2023-03-01T12:20:58;100728.69;;;6.32;66.20
64292;BME280;50628;51.008;13.658;2023-03-01T12:26:10;100723.53;;;6.68;62.81
64292;BME280;50628;51.008;13.658;2023-03-01T12:31:48;100721.09;;;5.72;61.97
64292;BME280;50628;51.008;13.658;2023-03-01T12:37:19;100710.31;;;4.82;60.26
64292;BME280;50628;51.008;13.658;2023-03-01T12:42:31;100691.63;;;5.57;59.61
64292;BME280;50628;51.008;13.658;2023-03-01T12:47:47;100690.94;;;5.33;59.07
64292;BME280;50628;51.008;13.658;2023-03-01T12:52:55;100689.97;;;5.94;58.17
64292;BME280;50628;51.008;13.658;2023-03-01T12:58:07;100684.56;;;5.21;61.89
64292;BME280;50628;51.008;13.658;2023-03-01T13:03:19;100688.13;;;5.39;63.68
64292;BME280;50628;51.008;13.658;2023-03-01T13:08:29;100680.72;;;5.51;61.24
64292;BME280;50628;51.008;13.658;2023-03-01T13:13:36;100679.38;;;4.82;62.75
64292;BME280;50628;51.008;13.658;2023-03-01T13:18:37;100691.00;;;6.28;57.02
64292;BME280;50628;51.008;13.658;2023-03-01T13:23:40;100676.09;;;7.03;57.06
64292;BME280;50628;51.008;13.658;2023-03-01T13:28:52;100682.13;;;6.68;60.34
64292;BME280;50628;51.008;13.658;2023-03-01T13:33:56;100686.00;;;6.94;58.29
64292;BME280;50628;51.008;13.658;2023-03-01T13:39:00;100689.28;;;7.49;55.87
64292;BME280;50628;51.008;13.658;2023-03-01T13:44:12;100673.84;;;6.79;55.83
64292;BME280;50628;51.008;13.658;2023-03-01T13:49:16;100662.19;;;6.88;54.15
64292;BME280;50628;51.008;13.658;2023-03-01T13:54:26;100672.63;;;8.32;51.30
64292;BME280;50628;51.008;13.658;2023-03-01T13:59:31;100661.59;;;8.29;54.35
64292;BME280;50628;51.008;13.658;2023-03-01T14:04:33;100676.03;;;7.37;53.89
64292;BME280;50628;51.008;13.658;2023-03-01T14:09:39;100658.13;;;8.60;50.92
64292;BME280;50628;51.008;13.658;2023-03-01T14:14:59;100650.53;;;8.71;50.94
64292;BME280;50628;51.008;13.658;2023-03-01T14:20:11;100639.28;;;9.01;49.80
64292;BME280;50628;51.008;13.658;2023-03-01T14:25:20;100636.63;;;9.72;49.16
64292;BME280;50628;51.008;13.658;2023-03-01T14:30:26;100625.06;;;9.49;47.95
64292;BME280;50628;51.008;13.658;2023-03-01T14:35:30;100627.94;;;9.45;48.10
64292;BME280;50628;51.008;13.658;2023-03-01T14:40:35;100635.38;;;7.55;51.70
64292;BME280;50628;51.008;13.658;2023-03-01T14:45:39;100625.97;;;8.62;51.85
64292;BME280;50628;51.008;13.658;2023-03-01T14:50:42;100617.78;;;8.24;49.50
64292;BME280;50628;51.008;13.658;2023-03-01T14:55:46;100608.75;;;8.76;49.78
64292;BME280;50628;51.008;13.658;2023-03-01T15:00:54;100609.78;;;8.87;49.20
64292;BME280;50628;51.008;13.658;2023-03-01T15:05:57;100617.66;;;8.41;50.11
64292;BME280;50628;51.008;13.658;2023-03-01T15:11:03;100609.84;;;9.85;47.12
64292;BME280;50628;51.008;13.658;2023-03-01T15:16:11;100601.22;;;10.11;44.58
64292;BME280;50628;51.008;13.658;2023-03-01T15:21:17;100602.75;;;7.35;48.86
64292;BME280;50628;51.008;13.658;2023-03-01T15:26:24;100603.47;;;9.06;47.29
64292;BME280;50628;51.008;13.658;2023-03-01T15:31:29;100602.66;;;9.05;48.99
64292;BME280;50628;51.008;13.658;2023-03-01T15:36:43;100606.97;;;10.95;45.36
64292;BME280;50628;51.008;13.658;2023-03-01T15:41:47;100600.50;;;10.62;46.08
64292;BME280;50628;51.008;13.658;2023-03-01T15:46:51;100602.66;;;9.20;47.92
64292;BME280;50628;51.008;13.658;2023-03-01T15:51:54;100599.28;;;7.84;51.47
64292;BME280;50628;51.008;13.658;2023-03-01T15:56:57;100594.75;;;6.91;55.38
64292;BME280;50628;51.008;13.658;2023-03-01T16:02:00;100584.50;;;6.55;57.32
64292;BME280;50628;51.008;13.658;2023-03-01T16:07:02;100585.22;;;6.58;58.29
64292;BME280;50628;51.008;13.658;2023-03-01T16:12:05;100589.41;;;6.43;59.99
64292;BME280;50628;51.008;13.658;2023-03-01T16:17:08;100586.72;;;6.10;61.54
64292;BME280;50628;51.008;13.658;2023-03-01T16:22:11;100595.97;;;5.97;63.12
64292;BME280;50628;51.008;13.658;2023-03-01T16:27:13;100596.34;;;5.70;72.01
64292;BME280;50628;51.008;13.658;2023-03-01T16:32:17;100612.78;;;5.11;83.64
64292;BME280;50628;51.008;13.658;2023-03-01T16:37:19;100606.00;;;4.69;86.49
64292;BME280;50628;51.008;13.658;2023-03-01T16:42:22;100607.59;;;4.51;93.74
64292;BME280;50628;51.008;13.658;2023-03-01T16:47:25;100602.53;;;4.07;100.00
64292;BME280;50628;51.008;13.658;2023-03-01T16:52:27;100613.59;;;3.87;100.00
64292;BME280;50628;51.008;13.658;2023-03-01T16:57:29;100610.03;;;3.91;100.00
64292;BME280;50628;51.008;13.658;2023-03-01T17:02:33;100610.50;;;3.79;100.00
64292;BME280;50628;51.008;13.658;2023-03-01T17:07:35;100607.56;;;3.66;100.00
64292;BME280;50628;51.008;13.658;2023-03-01T17:12:37;100621.78;;;3.29;100.00
64292;BME280;50628;51.008;13.658;2023-03-01T17:17:41;100619.94;;;2.84;100.00
64292;BME280;50628;51.008;13.658;2023-03-01T17:22:43;100612.72;;;2.70;100.00
64292;BME280;50628;51.008;13.658;2023-03-01T17:27:45;100629.16;;;2.90;100.00
64292;BME280;50628;51.008;13.658;2023-03-01T17:32:48;100634.91;;;2.73;100.00
64292;BME280;50628;51.008;13.658;2023-03-01T17:37:50;100631.59;;;2.69;100.00
64292;BME280;50628;51.008;13.658;2023-03-01T17:42:52;100635.50;;;2.54;100.00
64292;BME280;50628;51.008;13.658;2023-03-01T17:47:55;100643.91;;;2.59;100.00
64292;BME280;50628;51.008;13.658;2023-03-01T17:52:57;100641.31;;;2.34;100.00
64292;BME280;50628;51.008;13.658;2023-03-01T17:57:59;100637.53;;;2.18;100.00
64292;BME280;50628;51.008;13.658;2023-03-01T18:03:03;100639.44;;;1.85;100.00
64292;BME280;50628;51.008;13.658;2023-03-01T18:08:05;100640.41;;;1.81;100.00
64292;BME280;50628;51.008;13.658;2023-03-01T18:13:07;100645.25;;;1.62;100.00
64292;BME280;50628;51.008;13.658;2023-03-01T18:18:10;100649.59;;;1.28;100.00
64292;BME280;50628;51.008;13.658;2023-03-01T18:23:12;100652.72;;;1.08;100.00
64292;BME280;50628;51.008;13.658;2023-03-01T18:28:13;100647.44;;;1.13;100.00
64292;BME280;50628;51.008;13.658;2023-03-01T18:33:17;100644.88;;;1.13;100.00
64292;BME280;50628;51.008;13.658;2023-03-01T18:38:19;100632.66;;;0.92;100.00
64292;BME280;50628;51.008;13.658;2023-03-01T18:43:21;100634.09;;;1.02;100.00
64292;BME280;50628;51.008;13.658;2023-03-01T18:48:24;100630.81;;;0.97;100.00
64292;BME280;50628;51.008;13.658;2023-03-01T18:53:27;100634.31;;;0.93;100.00
64292;BME280;50628;51.008;13.658;2023-03-01T18:58:29;100628.97;;;0.69;100.00
64292;BME280;50628;51.008;13.658;2023-03-01T19:03:32;100636.03;;;0.61;100.00
64292;BME280;50628;51.008;13.658;2023-03-01T19:08:35;100622.31;;;0.62;100.00
64292;BME280;50628;51.008;13.658;2023-03-01T19:13:38;100635.69;;;0.40;100.00
64292;BME280;50628;51.008;13.658;2023-03-01T19:18:43;100645.28;;;0.31;100.00
64292;BME280;50628;51.008;13.658;2023-03-01T19:23:50;100645.53;;;0.20;100.00
64292;BME280;50628;51.008;13.658;2023-03-01T19:28:53;100640.66;;;0.09;100.00
64292;BME280;50628;51.008;13.658;2023-03-01T19:33:57;100643.59;;;0.30;100.00
64292;BME280;50628;51.008;13.658;2023-03-01T19:39:00;100633.63;;;0.17;100.00
64292;BME280;50628;51.008;13.658;2023-03-01T19:44:02;100629.59;;;0.09;100.00
64292;BME280;50628;51.008;13.658;2023-03-01T19:49:06;100624.06;;;0.26;100.00
64292;BME280;50628;51.008;13.658;2023-03-01T19:54:08;100630.34;;;0.12;100.00
64292;BME280;50628;51.008;13.658;2023-03-01T19:59:12;100634.06;;;-0.01;100.00
64292;BME280;50628;51.008;13.658;2023-03-01T20:04:15;100645.31;;;-0.08;100.00
64292;BME280;50628;51.008;13.658;2023-03-01T20:09:17;100650.69;;;-0.19;100.00
64292;BME280;50628;51.008;13.658;2023-03-01T20:14:19;100653.38;;;0.12;100.00
64292;BME280;50628;51.008;13.658;2023-03-01T20:19:22;100639.97;;;0.03;100.00
64292;BME280;50628;51.008;13.658;2023-03-01T20:24:24;100646.53;;;-0.25;100.00
64292;BME280;50628;51.008;13.658;2023-03-01T20:29:26;100649.09;;;-0.25;100.00
64292;BME280;50628;51.008;13.658;2023-03-01T20:34:29;100643.34;;;-0.36;100.00
64292;BME280;50628;51.008;13.658;2023-03-01T20:39:31;100628.72;;;-0.28;100.00
64292;BME280;50628;51.008;13.658;2023-03-01T20:44:33;100629.47;;;-0.64;100.00
64292;BME280;50628;51.008;13.658;2023-03-01T20:49:43;100632.03;;;-0.64;100.00
64292;BME280;50628;51.008;13.658;2023-03-01T20:54:45;100617.81;;;-0.37;100.00
64292;BME280;50628;51.008;13.658;2023-03-01T20:59:48;100624.00;;;-0.48;100.00
64292;BME280;50628;51.008;13.658;2023-03-01T21:04:51;100632.84;;;-0.62;100.00
64292;BME280;50628;51.008;13.658;2023-03-01T21:09:53;100626.31;;;-0.77;100.00
64292;BME280;50628;51.008;13.658;2023-03-01T21:14:55;100621.06;;;-1.16;100.00
64292;BME280;50628;51.008;13.658;2023-03-01T21:19:58;100626.41;;;-0.82;100.00
64292;BME280;50628;51.008;13.658;2023-03-01T21:25:00;100615.38;;;-0.44;100.00
64292;BME280;50628;51.008;13.658;2023-03-01T21:30:02;100611.59;;;-0.66;100.00
64292;BME280;50628;51.008;13.658;2023-03-01T21:35:07;100610.78;;;-0.68;100.00
64292;BME280;50628;51.008;13.658;2023-03-01T21:40:10;100609.34;;;-0.81;100.00
64292;BME280;50628;51.008;13.658;2023-03-01T21:45:12;100612.50;;;-1.14;100.00
64292;BME280;50628;51.008;13.658;2023-03-01T21:50:15;100615.94;;;-1.15;100.00
64292;BME280;50628;51.008;13.658;2023-03-01T21:55:17;100605.47;;;-1.01;100.00
64292;BME280;50628;51.008;13.658;2023-03-01T22:00:19;100598.41;;;-0.88;100.00
64292;BME280;50628;51.008;13.658;2023-03-01T22:05:24;100594.75;;;-1.18;100.00
64292;BME280;50628;51.008;13.658;2023-03-01T22:10:26;100592.13;;;-1.15;100.00
64292;BME280;50628;51.008;13.658;2023-03-01T22:15:28;100584.16;;;-0.98;100.00
64292;BME280;50628;51.008;13.658;2023-03-01T22:20:32;100577.91;;;-1.30;100.00
64292;BME280;50628;51.008;13.658;2023-03-01T22:25:39;100581.38;;;-1.33;100.00
64292;BME280;50628;51.008;13.658;2023-03-01T22:30:43;100582.50;;;-1.49;100.00
64292;BME280;50628;51.008;13.658;2023-03-01T22:35:46;100585.50;;;-0.80;100.00
64292;BME280;50628;51.008;13.658;2023-03-01T22:40:55;100587.09;;;-1.21;100.00
64292;BME280;50628;51.008;13.658;2023-03-01T22:45:57;100586.22;;;-1.67;100.00
64292;BME280;50628;51.008;13.658;2023-03-01T22:51:00;100583.38;;;-1.48;100.00
64292;BME280;50628;51.008;13.658;2023-03-01T22:56:10;100593.31;;;-1.33;100.00
64292;BME280;50628;51.008;13.658;2023-03-01T23:01:13;100578.47;;;-1.62;100.00
64292;BME280;50628;51.008;13.658;2023-03-01T23:06:18;100575.72;;;-1.52;100.00
64292;BME280;50628;51.008;13.658;2023-03-01T23:11:21;100580.03;;;-2.05;100.00
64292;BME280;50628;51.008;13.658;2023-03-01T23:16:23;100576.09;;;-2.24;100.00
64292;BME280;50628;51.008;13.658;2023-03-01T23:21:27;100589.03;;;-2.40;100.00
64292;BME280;50628;51.008;13.658;2023-03-01T23:26:29;100583.97;;;-1.87;100.00
64292;BME280;50628;51.008;13.658;2023-03-01T23:31:30;100575.66;;;-1.47;100.00
64292;BME280;50628;51.008;13.658;2023-03-01T23:36:34;100576.63;;;-2.04;100.00
64292;BME280;50628;51.008;13.658;2023-03-01T23:41:36;100577.66;;;-2.17;100.00
64292;BME280;50628;51.008;13.658;2023-03-01T23:46:37;100581.75;;;-2.07;100.00
64292;BME280;50628;51.008;13.658;2023-03-01T23:51:41;100567.09;;;-2.51;100.00
64292;BME280;50628;51.008;13.658;2023-03-01T23:56:44;100579.13;;;-2.02;100.00
